createdAt,value
2022-08-11T00:00:31.231Z,17.03
2022-08-11T00:01:35.627Z,17.10
2022-08-11T00:02:40.348Z,17.16
2022-08-11T00:03:44.369Z,17.20
2022-08-11T00:04:48.797Z,17.16
2022-08-11T00:05:53.218Z,17.12
2022-08-11T00:06:57.607Z,17.10
2022-08-11T00:08:02.009Z,17.13
2022-08-11T00:09:06.406Z,17.18
2022-08-11T00:10:10.835Z,17.19
2022-08-11T00:11:15.234Z,17.14
2022-08-11T00:12:19.626Z,17.16
2022-08-11T00:13:24.056Z,17.13
2022-08-11T00:14:37.456Z,17.17
2022-08-11T00:15:32.778Z,17.16
2022-08-11T00:16:37.206Z,17.13
2022-08-11T00:17:41.591Z,17.13
2022-08-11T00:18:45.941Z,17.12
2022-08-11T00:20:12.424Z,17.15
2022-08-11T00:20:54.737Z,17.19
2022-08-11T00:22:04.345Z,17.24
2022-08-11T00:23:03.578Z,17.25
2022-08-11T00:24:07.977Z,17.26
2022-08-11T00:25:12.389Z,17.23
2022-08-11T00:26:16.775Z,17.19
2022-08-11T00:27:21.161Z,17.15
2022-08-11T00:28:27.007Z,17.16
2022-08-11T00:29:29.922Z,17.16
2022-08-11T00:30:34.313Z,17.15
2022-08-11T00:31:38.702Z,17.16
2022-08-11T00:32:43.197Z,17.19
2022-08-11T00:33:47.560Z,17.19
2022-08-11T00:34:51.960Z,17.15
2022-08-11T00:35:57.620Z,17.14
2022-08-11T00:37:00.677Z,17.13
2022-08-11T00:38:05.169Z,17.13
2022-08-11T00:39:09.640Z,17.09
2022-08-11T00:40:13.936Z,17.07
2022-08-11T00:41:18.389Z,17.08
2022-08-11T00:42:22.714Z,17.11
2022-08-11T00:43:27.150Z,17.16
2022-08-11T00:44:31.560Z,17.16
2022-08-11T00:45:35.922Z,17.15
2022-08-11T00:46:40.330Z,17.20
2022-08-11T00:47:44.755Z,17.21
2022-08-11T00:48:49.210Z,17.21
2022-08-11T00:49:53.579Z,17.22
2022-08-11T00:50:57.977Z,17.19
2022-08-11T00:52:05.517Z,17.18
2022-08-11T00:53:06.668Z,17.18
2022-08-11T00:54:11.080Z,17.16
2022-08-11T00:55:15.517Z,17.18
2022-08-11T00:56:19.877Z,17.19
2022-08-11T00:57:37.256Z,17.17
2022-08-11T00:58:28.702Z,17.18
2022-08-11T00:59:35.306Z,17.18
2022-08-11T01:00:37.618Z,17.21
2022-08-11T01:01:41.920Z,17.22
2022-08-11T01:02:46.323Z,17.20
2022-08-11T01:03:50.668Z,17.19
2022-08-11T01:04:55.863Z,17.19
2022-08-11T01:05:59.514Z,17.22
2022-08-11T01:07:03.920Z,17.24
2022-08-11T01:08:08.338Z,17.19
2022-08-11T01:09:17.965Z,17.19
2022-08-11T01:10:17.154Z,17.16
2022-08-11T01:11:21.672Z,17.20
2022-08-11T01:12:26.032Z,17.25
2022-08-11T01:13:30.463Z,17.24
2022-08-11T01:14:34.937Z,17.24
2022-08-11T01:15:39.211Z,17.22
2022-08-11T01:16:43.586Z,17.20
2022-08-11T01:17:47.947Z,17.19
2022-08-11T01:18:52.404Z,17.17
2022-08-11T01:20:44.809Z,17.17
2022-08-11T01:21:01.170Z,17.16
2022-08-11T01:22:05.579Z,17.16
2022-08-11T01:23:09.911Z,17.14
2022-08-11T01:24:14.309Z,17.13
2022-08-11T01:25:18.695Z,17.12
2022-08-11T01:26:23.076Z,17.12
2022-08-11T01:27:27.526Z,17.13
2022-08-11T01:28:38.023Z,17.12
2022-08-11T01:29:41.084Z,17.11
2022-08-11T01:30:45.419Z,17.10
2022-08-11T01:31:49.785Z,17.10
2022-08-11T01:32:54.191Z,17.09
2022-08-11T01:33:58.593Z,17.08
2022-08-11T01:35:02.973Z,17.08
2022-08-11T01:36:07.389Z,17.08
2022-08-11T01:37:11.780Z,17.09
2022-08-11T01:38:16.143Z,17.10
2022-08-11T01:39:20.650Z,17.11
2022-08-11T01:40:24.956Z,17.12
2022-08-11T01:41:29.379Z,17.13
2022-08-11T01:42:33.846Z,17.13
2022-08-11T01:43:38.240Z,17.13
2022-08-11T01:44:42.617Z,17.13
2022-08-11T01:45:47.032Z,17.13
2022-08-11T01:46:51.402Z,17.12
2022-08-11T01:47:55.766Z,17.12
2022-08-11T01:49:00.143Z,17.11
2022-08-11T01:50:08.133Z,17.11
2022-08-11T01:51:08.977Z,17.10
2022-08-11T01:52:13.396Z,17.10
2022-08-11T01:53:17.729Z,17.10
2022-08-11T01:54:22.125Z,17.10
2022-08-11T01:55:26.528Z,17.10
2022-08-11T01:56:30.925Z,17.09
2022-08-11T01:57:35.282Z,17.09
2022-08-11T01:58:43.875Z,17.08
2022-08-11T01:59:44.102Z,17.07
2022-08-11T02:00:48.550Z,17.06
2022-08-11T02:01:52.901Z,17.07
2022-08-11T02:02:57.277Z,17.06
2022-08-11T02:04:01.713Z,17.07
2022-08-11T02:05:06.091Z,17.07
2022-08-11T02:06:10.525Z,17.07
2022-08-11T02:07:14.910Z,17.06
2022-08-11T02:08:19.304Z,17.05
2022-08-11T02:09:23.690Z,17.03
2022-08-11T02:10:36.699Z,17.02
2022-08-11T02:11:35.487Z,17.00
2022-08-11T02:12:37.136Z,16.99
2022-08-11T02:13:41.300Z,16.97
2022-08-11T02:14:53.602Z,16.95
2022-08-11T02:15:50.081Z,16.94
2022-08-11T02:16:54.467Z,16.93
2022-08-11T02:17:58.838Z,16.93
2022-08-11T02:19:03.250Z,16.94
2022-08-11T02:20:07.609Z,16.94
2022-08-11T02:21:12.008Z,16.95
2022-08-11T02:22:16.408Z,16.96
2022-08-11T02:23:59.541Z,16.97
2022-08-11T02:24:25.226Z,16.97
2022-08-11T02:25:29.625Z,16.97
2022-08-11T02:26:48.021Z,16.95
2022-08-11T02:27:51.435Z,16.95
2022-08-11T02:28:55.777Z,16.95
2022-08-11T02:30:03.106Z,16.96
2022-08-11T02:31:06.598Z,16.97
2022-08-11T02:32:24.670Z,16.98
2022-08-11T02:33:15.352Z,16.98
2022-08-11T02:34:19.708Z,16.99
2022-08-11T02:35:24.160Z,16.99
2022-08-11T02:36:28.513Z,16.99
2022-08-11T02:37:32.915Z,16.98
2022-08-11T02:38:37.291Z,16.98
2022-08-11T02:39:41.705Z,16.98
2022-08-11T02:40:46.056Z,16.97
2022-08-11T02:41:50.412Z,16.97
2022-08-11T02:42:54.800Z,16.96
2022-08-11T02:43:59.201Z,16.95
2022-08-11T02:45:03.608Z,16.95
2022-08-11T02:46:08.013Z,16.93
2022-08-11T02:47:12.392Z,16.94
2022-08-11T02:48:16.808Z,16.93
2022-08-11T02:49:21.202Z,16.93
2022-08-11T02:50:25.582Z,16.93
2022-08-11T02:51:29.984Z,16.94
2022-08-11T02:52:34.348Z,16.94
2022-08-11T02:53:38.732Z,16.93
2022-08-11T02:54:43.101Z,16.92
2022-08-11T02:55:57.247Z,16.92
2022-08-11T02:56:51.866Z,16.92
2022-08-11T02:57:56.253Z,16.92
2022-08-11T02:59:00.677Z,16.89
2022-08-11T03:00:05.033Z,16.86
2022-08-11T03:01:09.456Z,16.83
2022-08-11T03:02:16.737Z,16.80
2022-08-11T03:03:20.200Z,16.76
2022-08-11T03:04:24.610Z,16.73
2022-08-11T03:05:28.997Z,16.69
2022-08-11T03:06:33.345Z,16.64
2022-08-11T03:07:37.721Z,16.59
2022-08-11T03:08:42.124Z,16.55
2022-08-11T03:09:46.499Z,16.51
2022-08-11T03:10:50.805Z,16.47
2022-08-11T03:11:55.237Z,16.43
2022-08-11T03:12:59.589Z,16.40
2022-08-11T03:14:03.950Z,16.37
2022-08-11T03:15:08.341Z,16.37
2022-08-11T03:16:12.702Z,16.37
2022-08-11T03:17:17.077Z,16.37
2022-08-11T03:18:21.453Z,16.36
2022-08-11T03:19:25.942Z,16.35
2022-08-11T03:20:33.429Z,16.34
2022-08-11T03:22:01.549Z,16.33
2022-08-11T03:22:39.225Z,16.32
2022-08-11T03:23:43.362Z,16.32
2022-08-11T03:24:47.711Z,16.32
2022-08-11T03:25:52.073Z,16.32
2022-08-11T03:26:56.429Z,16.32
2022-08-11T03:28:02.639Z,16.31
2022-08-11T03:29:05.204Z,16.28
2022-08-11T03:30:09.580Z,16.24
2022-08-11T03:31:13.912Z,16.21
2022-08-11T03:32:18.276Z,16.19
2022-08-11T03:33:22.636Z,16.18
2022-08-11T03:34:27.014Z,16.17
2022-08-11T03:35:31.375Z,16.18
2022-08-11T03:36:54.451Z,16.20
2022-08-11T03:37:40.124Z,16.21
2022-08-11T03:38:44.479Z,16.22
2022-08-11T03:39:55.523Z,16.23
2022-08-11T03:40:53.245Z,16.25
2022-08-11T03:42:04.350Z,16.26
2022-08-11T03:43:02.051Z,16.28
2022-08-11T03:44:06.368Z,16.29
2022-08-11T03:45:10.763Z,16.28
2022-08-11T03:46:15.136Z,16.27
2022-08-11T03:47:19.499Z,16.26
2022-08-11T03:48:23.872Z,16.26
2022-08-11T03:49:28.208Z,16.26
2022-08-11T03:50:32.652Z,16.26
2022-08-11T03:51:44.541Z,16.26
2022-08-11T03:52:41.410Z,16.27
2022-08-11T03:53:45.741Z,16.27
2022-08-11T03:54:50.102Z,16.28
2022-08-11T03:55:54.558Z,16.29
2022-08-11T03:56:58.892Z,16.30
2022-08-11T03:58:03.246Z,16.31
2022-08-11T03:59:07.627Z,16.31
2022-08-11T04:00:12.056Z,16.31
2022-08-11T04:01:16.437Z,16.31
2022-08-11T04:02:20.766Z,16.31
2022-08-11T04:03:31.533Z,16.33
2022-08-11T04:04:29.466Z,16.35
2022-08-11T04:05:33.887Z,16.37
2022-08-11T04:06:38.223Z,16.39
2022-08-11T04:07:42.622Z,16.40
2022-08-11T04:08:49.971Z,16.41
2022-08-11T04:09:53.441Z,16.42
2022-08-11T04:10:58.283Z,16.43
2022-08-11T04:12:02.263Z,16.45
2022-08-11T04:13:06.653Z,16.46
2022-08-11T04:14:11.008Z,16.48
2022-08-11T04:15:15.411Z,16.50
2022-08-11T04:16:19.658Z,16.52
2022-08-11T04:17:24.075Z,16.54
2022-08-11T04:18:28.435Z,16.56
2022-08-11T04:19:32.849Z,16.57
2022-08-11T04:20:37.235Z,16.59
2022-08-11T04:21:41.527Z,16.60
2022-08-11T04:22:45.944Z,16.62
2022-08-11T04:24:34.643Z,16.62
2022-08-11T04:24:54.717Z,16.61
2022-08-11T04:25:59.518Z,16.58
2022-08-11T04:27:04.996Z,16.56
2022-08-11T04:28:07.892Z,16.52
2022-08-11T04:29:12.279Z,16.49
2022-08-11T04:30:16.898Z,16.47
2022-08-11T04:31:52.042Z,16.46
2022-08-11T04:32:25.363Z,16.46
2022-08-11T04:33:29.699Z,16.46
2022-08-11T04:34:34.069Z,16.46
2022-08-11T04:35:38.414Z,16.46
2022-08-11T04:36:42.825Z,16.47
2022-08-11T04:37:51.333Z,16.49
2022-08-11T04:38:51.544Z,16.51
2022-08-11T04:39:55.913Z,16.53
2022-08-11T04:41:00.298Z,16.55
2022-08-11T04:42:04.653Z,16.57
2022-08-11T04:43:09.030Z,16.60
2022-08-11T04:44:13.436Z,16.61
2022-08-11T04:45:17.818Z,16.60
2022-08-11T04:46:22.176Z,16.59
2022-08-11T04:47:26.540Z,16.57
2022-08-11T04:48:30.918Z,16.56
2022-08-11T04:49:35.190Z,16.56
2022-08-11T04:50:39.607Z,16.55
2022-08-11T04:51:43.969Z,16.55
2022-08-11T04:52:48.282Z,16.56
2022-08-11T04:53:52.746Z,16.57
2022-08-11T04:54:57.143Z,16.58
2022-08-11T04:56:01.442Z,16.60
2022-08-11T04:57:05.861Z,16.63
2022-08-11T04:58:10.231Z,16.65
2022-08-11T04:59:14.607Z,16.67
2022-08-11T05:00:19.022Z,16.67
2022-08-11T05:01:23.511Z,16.68
2022-08-11T05:02:27.725Z,16.69
2022-08-11T05:03:32.131Z,16.70
2022-08-11T05:04:36.473Z,16.70
2022-08-11T05:05:40.851Z,16.70
2022-08-11T05:06:45.236Z,16.70
2022-08-11T05:07:49.624Z,16.71
2022-08-11T05:08:54.016Z,16.72
2022-08-11T05:09:58.416Z,16.72
2022-08-11T05:11:02.771Z,16.74
2022-08-11T05:12:07.154Z,16.74
2022-08-11T05:13:11.530Z,16.75
2022-08-11T05:14:15.862Z,16.77
2022-08-11T05:15:20.243Z,16.79
2022-08-11T05:16:24.633Z,16.81
2022-08-11T05:17:28.988Z,16.84
2022-08-11T05:18:33.370Z,16.87
2022-08-11T05:19:37.759Z,16.90
2022-08-11T05:20:42.177Z,16.91
2022-08-11T05:21:46.580Z,16.94
2022-08-11T05:22:50.933Z,16.97
2022-08-11T05:23:55.230Z,17.24
2022-08-11T05:24:59.669Z,17.10
2022-08-11T05:26:46.597Z,17.13
2022-08-11T05:27:13.301Z,17.17
2022-08-11T05:28:12.810Z,17.22
2022-08-11T05:29:20.108Z,17.26
2022-08-11T05:30:21.573Z,17.28
2022-08-11T05:31:25.960Z,17.32
2022-08-11T05:32:30.309Z,17.35
2022-08-11T05:33:34.746Z,17.39
2022-08-11T05:34:39.071Z,17.44
2022-08-11T05:36:01.948Z,17.49
2022-08-11T05:36:47.855Z,17.55
2022-08-11T05:37:52.252Z,17.62
2022-08-11T05:38:56.659Z,17.66
2022-08-11T05:40:01.078Z,17.72
2022-08-11T05:41:05.417Z,17.76
2022-08-11T05:42:09.796Z,17.81
2022-08-11T05:43:14.215Z,17.86
2022-08-11T05:44:21.618Z,17.91
2022-08-11T05:45:22.992Z,17.95
2022-08-11T05:46:27.421Z,17.99
2022-08-11T05:47:31.798Z,18.04
2022-08-11T05:48:36.187Z,18.10
2022-08-11T05:49:40.568Z,18.16
2022-08-11T05:50:44.962Z,18.22
2022-08-11T05:51:54.595Z,18.27
2022-08-11T05:52:55.435Z,18.35
2022-08-11T05:53:58.190Z,18.43
2022-08-11T05:55:06.104Z,18.50
2022-08-11T05:56:06.981Z,18.56
2022-08-11T05:57:49.537Z,18.62
2022-08-11T05:58:15.801Z,18.69
2022-08-11T05:59:20.183Z,18.74
2022-08-11T06:00:24.612Z,18.80
2022-08-11T06:01:29.070Z,18.79
2022-08-11T06:02:33.463Z,18.92
2022-08-11T06:03:37.878Z,18.94
2022-08-11T06:04:42.280Z,18.91
2022-08-11T06:05:46.583Z,18.83
2022-08-11T06:06:51.004Z,18.70
2022-08-11T06:07:55.430Z,18.84
2022-08-11T06:08:59.884Z,19.09
2022-08-11T06:10:04.312Z,19.16
2022-08-11T06:11:08.710Z,19.20
2022-08-11T06:12:13.136Z,19.02
2022-08-11T06:13:17.540Z,19.11
2022-08-11T06:14:21.947Z,19.11
2022-08-11T06:15:26.418Z,18.83
2022-08-11T06:16:30.843Z,18.78
2022-08-11T06:17:39.181Z,18.88
2022-08-11T06:18:39.652Z,19.00
2022-08-11T06:19:44.058Z,19.03
2022-08-11T06:20:48.450Z,19.10
2022-08-11T06:21:52.889Z,19.14
2022-08-11T06:22:57.338Z,19.18
2022-08-11T06:24:01.836Z,19.17
2022-08-11T06:25:06.228Z,19.28
2022-08-11T06:26:10.613Z,19.39
2022-08-11T06:27:15.085Z,19.35
2022-08-11T06:28:21.012Z,19.40
2022-08-11T06:29:23.905Z,19.32
2022-08-11T06:30:28.316Z,19.19
2022-08-11T06:31:32.704Z,19.33
2022-08-11T06:32:37.382Z,19.30
2022-08-11T06:33:41.531Z,19.30
2022-08-11T06:34:46.026Z,19.38
2022-08-11T06:35:50.448Z,19.38
2022-08-11T06:36:54.907Z,19.50
2022-08-11T06:37:59.481Z,19.44
2022-08-11T06:39:03.791Z,19.19
2022-08-11T06:40:08.249Z,19.32
2022-08-11T06:41:12.660Z,19.13
2022-08-11T06:42:17.051Z,19.11
2022-08-11T06:43:21.474Z,19.19
2022-08-11T06:44:25.923Z,19.37
2022-08-11T06:45:30.387Z,19.30
2022-08-11T06:46:34.806Z,19.35
2022-08-11T06:47:39.251Z,19.36
2022-08-11T06:48:43.639Z,19.34
2022-08-11T06:49:48.079Z,19.39
2022-08-11T06:50:52.499Z,19.43
2022-08-11T06:51:57.001Z,19.19
2022-08-11T06:53:01.373Z,19.22
2022-08-11T06:54:05.995Z,19.31
2022-08-11T06:55:56.188Z,19.53
2022-08-11T06:56:14.630Z,19.44
2022-08-11T06:57:29.932Z,19.57
2022-08-11T06:58:23.500Z,19.70
2022-08-11T06:59:27.926Z,19.80
2022-08-11T07:00:33.260Z,19.73
2022-08-11T07:01:36.821Z,19.62
2022-08-11T07:02:41.376Z,19.67
2022-08-11T07:03:45.712Z,19.86
2022-08-11T07:04:50.186Z,19.96
2022-08-11T07:05:54.637Z,20.16
2022-08-11T07:06:59.113Z,20.33
2022-08-11T07:08:35.314Z,20.29
2022-08-11T07:09:08.016Z,20.47
2022-08-11T07:10:12.499Z,20.27
2022-08-11T07:11:16.955Z,20.03
2022-08-11T07:12:21.417Z,20.11
2022-08-11T07:13:39.389Z,20.37
2022-08-11T07:14:33.879Z,20.13
2022-08-11T07:16:11.463Z,19.79
2022-08-11T07:16:39.307Z,20.02
2022-08-11T07:17:43.771Z,20.24
2022-08-11T07:18:48.231Z,19.88
2022-08-11T07:19:52.680Z,19.90
2022-08-11T07:21:01.782Z,19.89
2022-08-11T07:22:04.023Z,20.00
2022-08-11T07:23:06.083Z,20.09
2022-08-11T07:24:10.538Z,20.04
2022-08-11T07:25:15.026Z,20.10
2022-08-11T07:26:19.497Z,20.06
2022-08-11T07:27:23.972Z,20.03
2022-08-11T07:28:29.676Z,20.19
2022-08-11T07:29:32.736Z,20.04
2022-08-11T07:30:37.249Z,20.09
2022-08-11T07:31:41.694Z,20.04
2022-08-11T07:32:46.132Z,19.71
2022-08-11T07:34:06.438Z,19.76
2022-08-11T07:34:55.031Z,19.62
2022-08-11T07:35:59.488Z,19.68
2022-08-11T07:37:03.925Z,19.95
2022-08-11T07:38:08.368Z,19.71
2022-08-11T07:39:12.917Z,19.86
2022-08-11T07:40:17.278Z,19.97
2022-08-11T07:41:21.770Z,20.00
2022-08-11T07:42:26.209Z,20.02
2022-08-11T07:43:30.641Z,20.06
2022-08-11T07:44:35.557Z,19.87
2022-08-11T07:45:39.599Z,19.90
2022-08-11T07:46:44.067Z,19.86
2022-08-11T07:47:48.512Z,19.65
2022-08-11T07:48:52.980Z,19.61
2022-08-11T07:49:57.458Z,19.53
2022-08-11T07:51:01.906Z,19.75
2022-08-11T07:52:06.409Z,19.80
2022-08-11T07:53:10.842Z,19.87
2022-08-11T07:54:16.866Z,19.62
2022-08-11T07:55:19.803Z,19.85
2022-08-11T07:56:49.839Z,19.86
2022-08-11T07:58:04.444Z,19.87
2022-08-11T07:58:34.749Z,19.58
2022-08-11T08:00:00.695Z,19.25
2022-08-11T08:00:41.968Z,19.54
2022-08-11T08:01:46.582Z,19.05
2022-08-11T08:02:50.839Z,19.39
2022-08-11T08:03:55.338Z,19.54
2022-08-11T08:04:59.786Z,19.04
2022-08-11T08:06:04.338Z,19.10
2022-08-11T08:07:08.883Z,18.94
2022-08-11T08:08:13.326Z,19.39
2022-08-11T08:09:17.763Z,19.51
2022-08-11T08:10:22.192Z,19.57
2022-08-11T08:11:27.438Z,19.30
2022-08-11T08:12:31.132Z,19.34
2022-08-11T08:13:35.589Z,19.53
2022-08-11T08:14:40.034Z,19.41
2022-08-11T08:15:44.490Z,19.36
2022-08-11T08:16:52.018Z,18.90
2022-08-11T08:18:20.729Z,19.21
2022-08-11T08:19:00.067Z,19.13
2022-08-11T08:20:04.408Z,18.95
2022-08-11T08:21:08.927Z,18.22
2022-08-11T08:22:38.244Z,18.50
2022-08-11T08:23:17.717Z,18.92
2022-08-11T08:24:22.259Z,18.45
2022-08-11T08:25:26.716Z,18.28
2022-08-11T08:26:31.168Z,18.20
2022-08-11T08:27:35.639Z,18.49
2022-08-11T08:28:40.132Z,18.23
2022-08-11T08:29:44.603Z,18.33
2022-08-11T08:30:49.026Z,18.82
2022-08-11T08:31:53.422Z,18.51
2022-08-11T08:32:57.848Z,18.48
2022-08-11T08:34:02.337Z,18.72
2022-08-11T08:35:06.828Z,18.91
2022-08-11T08:36:11.968Z,18.99
2022-08-11T08:37:47.255Z,18.09
2022-08-11T08:38:20.239Z,18.52
2022-08-11T08:39:24.795Z,17.59
2022-08-11T08:40:29.234Z,17.70
2022-08-11T08:41:33.657Z,17.53
2022-08-11T08:42:42.951Z,17.73
2022-08-11T08:43:48.721Z,17.90
2022-08-11T08:44:47.089Z,17.99
2022-08-11T08:45:51.587Z,18.15
2022-08-11T08:46:56.150Z,18.31
2022-08-11T08:48:00.581Z,18.38
2022-08-11T08:49:05.033Z,18.50
2022-08-11T08:50:09.490Z,18.19
2022-08-11T08:51:13.958Z,18.55
2022-08-11T08:52:31.924Z,18.63
2022-08-11T08:53:22.799Z,18.59
2022-08-11T08:54:27.297Z,18.77
2022-08-11T08:55:31.743Z,18.90
2022-08-11T08:56:36.317Z,18.90
2022-08-11T08:57:40.918Z,18.25
2022-08-11T08:58:45.189Z,17.86
2022-08-11T08:59:49.813Z,17.91
2022-08-11T09:00:54.196Z,18.43
2022-08-11T09:02:01.649Z,18.31
2022-08-11T09:03:36.056Z,18.43
2022-08-11T09:04:12.302Z,18.65
2022-08-11T09:05:17.292Z,18.71
2022-08-11T09:06:20.963Z,18.71
2022-08-11T09:07:25.411Z,18.43
2022-08-11T09:08:29.924Z,18.57
2022-08-11T09:09:34.381Z,18.64
2022-08-11T09:10:38.866Z,18.57
2022-08-11T09:11:43.398Z,18.63
2022-08-11T09:12:48.069Z,18.46
2022-08-11T09:14:04.955Z,18.56
2022-08-11T09:14:56.801Z,18.62
2022-08-11T09:16:01.294Z,18.52
2022-08-11T09:17:05.768Z,18.56
2022-08-11T09:18:10.272Z,18.52
2022-08-11T09:19:14.812Z,18.55
2022-08-11T09:20:19.353Z,18.52
2022-08-11T09:21:39.480Z,18.52
2022-08-11T09:22:28.365Z,18.56
2022-08-11T09:24:37.282Z,19.19
2022-08-11T09:25:41.834Z,19.22
2022-08-11T09:26:46.343Z,19.18
2022-08-11T09:28:04.905Z,18.98
2022-08-11T09:29:08.252Z,19.76
2022-08-11T09:30:12.733Z,19.50
2022-08-11T09:31:17.246Z,19.11
2022-08-11T09:32:21.728Z,18.88
2022-08-11T09:33:26.207Z,18.53
2022-08-11T09:34:30.708Z,18.78
2022-08-11T09:35:35.194Z,18.36
2022-08-11T09:36:39.689Z,18.85
2022-08-11T09:37:54.842Z,18.94
2022-08-11T09:38:49.677Z,19.18
2022-08-11T09:39:53.276Z,18.84
2022-08-11T09:40:57.840Z,18.91
2022-08-11T09:42:03.359Z,18.86
2022-08-11T09:43:06.808Z,18.62
2022-08-11T09:44:11.319Z,18.96
2022-08-11T09:45:15.873Z,19.15
2022-08-11T09:46:20.383Z,18.60
2022-08-11T09:47:24.894Z,18.96
2022-08-11T09:48:29.323Z,18.99
2022-08-11T09:49:33.815Z,18.45
2022-08-11T09:50:38.345Z,18.98
2022-08-11T09:51:42.818Z,18.56
2022-08-11T09:53:03.854Z,18.84
2022-08-11T09:54:03.854Z,18.33
2022-08-11T09:54:56.374Z,18.13
2022-08-11T09:56:00.873Z,17.83
2022-08-11T09:57:05.637Z,18.40
2022-08-11T09:58:09.866Z,18.73
2022-08-11T09:59:14.375Z,18.90
2022-08-11T10:00:18.995Z,18.86
2022-08-11T10:01:23.425Z,18.76
2022-08-11T10:02:27.898Z,17.97
2022-08-11T10:03:32.372Z,18.22
2022-08-11T10:04:36.838Z,18.05
2022-08-11T10:05:41.363Z,18.23
2022-08-11T10:06:45.890Z,17.78
2022-08-11T10:07:50.389Z,17.85
2022-08-11T10:08:54.858Z,17.96
2022-08-11T10:09:59.342Z,17.72
2022-08-11T10:11:03.843Z,17.90
2022-08-11T10:12:08.416Z,17.85
2022-08-11T10:14:30.448Z,17.77
2022-08-11T10:14:33.863Z,17.59
2022-08-11T10:15:21.825Z,17.29
2022-08-11T10:16:26.322Z,17.30
2022-08-11T10:17:30.846Z,17.21
2022-08-11T10:18:35.345Z,17.44
2022-08-11T10:19:39.824Z,17.53
2022-08-11T10:20:44.335Z,17.28
2022-08-11T10:21:48.932Z,17.34
2022-08-11T10:22:53.494Z,17.61
2022-08-11T10:24:01.486Z,17.54
2022-08-11T10:25:02.475Z,17.58
2022-08-11T10:26:07.000Z,17.65
2022-08-11T10:27:11.526Z,17.85
2022-08-11T10:28:17.656Z,18.05
2022-08-11T10:29:20.481Z,17.99
2022-08-11T10:30:24.960Z,18.10
2022-08-11T10:31:31.278Z,18.06
2022-08-11T10:32:36.232Z,17.91
2022-08-11T10:33:41.723Z,17.86
2022-08-11T10:34:42.952Z,17.98
2022-08-11T10:35:47.424Z,18.15
2022-08-11T10:36:51.931Z,18.03
2022-08-11T10:38:08.817Z,18.09
2022-08-11T10:39:00.931Z,18.19
2022-08-11T10:40:06.433Z,18.12
2022-08-11T10:41:10.593Z,18.28
2022-08-11T10:42:30.045Z,17.88
2022-08-11T10:44:01.861Z,17.82
2022-08-11T10:44:27.035Z,18.13
2022-08-11T10:45:30.703Z,18.11
2022-08-11T10:46:35.170Z,18.46
2022-08-11T10:47:46.761Z,18.34
2022-08-11T10:48:44.114Z,18.43
2022-08-11T10:49:48.621Z,18.52
2022-08-11T10:50:53.062Z,18.38
2022-08-11T10:51:58.826Z,18.04
2022-08-11T10:53:02.039Z,18.41
2022-08-11T10:54:06.573Z,18.50
2022-08-11T10:55:11.093Z,18.41
2022-08-11T10:56:15.633Z,18.18
2022-08-11T10:57:20.156Z,18.51
2022-08-11T10:58:24.636Z,18.29
2022-08-11T10:59:29.156Z,18.30
2022-08-11T11:00:33.739Z,18.26
2022-08-11T11:01:38.191Z,18.41
2022-08-11T11:02:42.716Z,18.71
2022-08-11T11:03:47.209Z,18.42
2022-08-11T11:04:51.769Z,17.82
2022-08-11T11:06:28.509Z,17.57
2022-08-11T11:07:00.699Z,17.42
2022-08-11T11:08:05.295Z,17.76
2022-08-11T11:09:09.870Z,18.16
2022-08-11T11:10:14.304Z,17.73
2022-08-11T11:11:18.810Z,18.16
2022-08-11T11:12:23.424Z,18.39
2022-08-11T11:13:27.893Z,18.26
2022-08-11T11:14:32.464Z,18.15
2022-08-11T11:15:37.016Z,18.09
2022-08-11T11:16:47.525Z,18.12
2022-08-11T11:17:50.744Z,18.15
2022-08-11T11:19:00.792Z,17.95
2022-08-11T11:19:59.785Z,17.77
2022-08-11T11:21:04.324Z,17.86
2022-08-11T11:22:08.770Z,17.86
2022-08-11T11:23:13.248Z,18.05
2022-08-11T11:24:17.841Z,17.98
2022-08-11T11:25:22.331Z,18.34
2022-08-11T11:26:27.046Z,18.05
2022-08-11T11:27:31.301Z,18.26
2022-08-11T11:28:35.831Z,18.56
2022-08-11T11:29:40.310Z,18.23
2022-08-11T11:30:44.810Z,18.44
2022-08-11T11:31:49.323Z,18.28
2022-08-11T11:32:53.805Z,17.96
2022-08-11T11:34:06.446Z,17.79
2022-08-11T11:35:02.803Z,18.15
2022-08-11T11:36:07.271Z,18.10
2022-08-11T11:37:11.758Z,17.71
2022-08-11T11:38:16.362Z,18.04
2022-08-11T11:39:20.870Z,18.24
2022-08-11T11:40:28.745Z,18.38
2022-08-11T11:41:29.785Z,18.44
2022-08-11T11:42:34.394Z,18.44
2022-08-11T11:43:38.860Z,18.81
2022-08-11T11:44:43.378Z,18.83
2022-08-11T11:45:47.912Z,19.07
2022-08-11T11:46:52.401Z,19.37
2022-08-11T11:47:57.025Z,18.96
2022-08-11T11:49:01.466Z,19.28
2022-08-11T11:50:06.078Z,18.88
2022-08-11T11:51:10.629Z,18.85
2022-08-11T11:52:15.190Z,18.99
2022-08-11T11:53:19.716Z,18.86
2022-08-11T11:54:24.152Z,19.04
2022-08-11T11:55:28.774Z,19.15
2022-08-11T11:56:33.232Z,18.97
2022-08-11T11:57:38.057Z,18.88
2022-08-11T11:58:42.289Z,18.84
2022-08-11T11:59:46.785Z,18.88
2022-08-11T12:00:51.307Z,18.72
2022-08-11T12:01:55.834Z,18.58
2022-08-11T12:03:00.379Z,18.51
2022-08-11T12:04:04.862Z,18.57
2022-08-11T12:06:37.617Z,18.61
2022-08-11T12:08:04.928Z,18.97
2022-08-11T12:08:58.918Z,19.16
2022-08-11T12:10:03.346Z,19.23
2022-08-11T12:11:07.850Z,19.09
2022-08-11T12:12:12.380Z,18.79
2022-08-11T12:13:30.924Z,19.04
2022-08-11T12:14:34.424Z,19.16
2022-08-11T12:16:31.742Z,19.18
2022-08-11T12:16:43.308Z,19.33
2022-08-11T12:17:52.436Z,19.28
2022-08-11T12:18:52.286Z,19.35
2022-08-11T12:19:57.347Z,19.21
2022-08-11T12:21:01.242Z,19.27
2022-08-11T12:22:05.766Z,18.97
2022-08-11T12:23:10.298Z,18.91
2022-08-11T12:24:14.848Z,18.91
2022-08-11T12:25:19.395Z,19.11
2022-08-11T12:26:27.175Z,19.08
2022-08-11T12:27:28.396Z,19.30
2022-08-11T12:28:32.926Z,19.74
2022-08-11T12:29:41.486Z,19.61
2022-08-11T12:30:47.388Z,19.54
2022-08-11T12:31:48.769Z,19.60
2022-08-11T12:32:53.305Z,19.62
2022-08-11T12:33:57.797Z,19.46
2022-08-11T12:35:02.351Z,19.39
2022-08-11T12:36:06.773Z,19.84
2022-08-11T12:37:13.266Z,19.81
2022-08-11T12:38:15.858Z,19.67
2022-08-11T12:39:24.322Z,19.64
2022-08-11T12:40:43.008Z,19.61
2022-08-11T12:41:29.499Z,19.67
2022-08-11T12:42:33.938Z,19.70
2022-08-11T12:43:39.709Z,19.76
2022-08-11T12:44:43.011Z,19.94
2022-08-11T12:45:47.507Z,20.39
2022-08-11T12:46:52.047Z,20.09
2022-08-11T12:48:12.286Z,19.97
2022-08-11T12:49:02.387Z,20.63
2022-08-11T12:50:05.605Z,20.39
2022-08-11T12:51:10.167Z,20.35
2022-08-11T12:52:15.872Z,20.90
2022-08-11T12:53:19.164Z,21.03
2022-08-11T12:54:23.677Z,21.31
2022-08-11T12:55:28.207Z,20.40
2022-08-11T12:56:32.756Z,20.17
2022-08-11T12:57:38.068Z,20.36
2022-08-11T12:58:41.700Z,20.47
2022-08-11T12:59:46.196Z,20.49
2022-08-11T13:00:50.827Z,20.85
2022-08-11T13:01:55.309Z,20.62
2022-08-11T13:02:59.823Z,20.61
2022-08-11T13:04:04.335Z,20.62
2022-08-11T13:05:08.867Z,20.30
2022-08-11T13:06:13.399Z,20.00
2022-08-11T13:07:17.938Z,19.68
2022-08-11T13:08:22.440Z,19.63
2022-08-11T13:09:27.067Z,19.48
2022-08-11T13:10:31.567Z,19.46
2022-08-11T13:11:56.248Z,19.49
2022-08-11T13:12:40.762Z,19.55
2022-08-11T13:13:54.739Z,19.95
2022-08-11T13:14:49.642Z,20.31
2022-08-11T13:15:54.194Z,19.77
2022-08-11T13:16:58.699Z,19.53
2022-08-11T13:18:06.226Z,19.67
2022-08-11T13:19:09.851Z,19.40
2022-08-11T13:20:14.385Z,19.46
2022-08-11T13:21:20.148Z,19.40
2022-08-11T13:22:23.415Z,19.46
2022-08-11T13:23:27.953Z,19.56
2022-08-11T13:24:32.555Z,19.66
2022-08-11T13:25:37.042Z,19.10
2022-08-11T13:26:49.799Z,18.89
2022-08-11T13:27:46.284Z,18.98
2022-08-11T13:28:50.716Z,19.15
2022-08-11T13:29:55.215Z,19.30
2022-08-11T13:30:59.710Z,19.35
2022-08-11T13:32:04.240Z,19.30
2022-08-11T13:33:08.725Z,19.15
2022-08-11T13:34:13.244Z,19.00
2022-08-11T13:35:17.742Z,19.03
2022-08-11T13:36:22.261Z,19.00
2022-08-11T13:38:17.388Z,18.89
2022-08-11T13:38:31.616Z,18.82
2022-08-11T13:39:35.794Z,18.95
2022-08-11T13:40:55.342Z,18.94
2022-08-11T13:41:44.898Z,18.86
2022-08-11T13:42:49.468Z,18.61
2022-08-11T13:43:54.010Z,18.75
2022-08-11T13:44:58.446Z,18.96
2022-08-11T13:46:03.051Z,18.92
2022-08-11T13:47:07.513Z,18.82
2022-08-11T13:48:12.014Z,18.80
2022-08-11T13:49:16.568Z,18.78
2022-08-11T13:50:21.080Z,18.83
2022-08-11T13:51:25.595Z,18.62
2022-08-11T13:52:30.251Z,18.78
2022-08-11T13:53:34.715Z,18.78